Time;durP1;ratioP1;P1;durP2;ratioP2;P2;SDS_P1;SDS_P2;PMS_P1;PMS_P2;Temp;Humidity;BMP_temperature;BMP_pressure;BME280_temperature;BME280_humidity;BME280_pressure;Samples;Min_cycle;Max_cycle;Signal;HPM_P1;HPM_P2
2022/05/27 00:00:21;;;;;;;3.70;2.50;;;;;;;15.52;61.61;100042.95;130371;1268;108812;-76
2022/05/27 00:03:41;;;;;;;3.30;2.40;;;;;;;15.45;61.61;100038.07;130383;1268;108681;-77
2022/05/27 00:06:47;;;;;;;4.20;2.40;;;;;;;15.42;61.67;100036.22;130438;1268;108983;-77
2022/05/27 00:09:52;;;;;;;2.50;2.20;;;;;;;15.38;61.44;100030.77;130385;1268;108645;-77
2022/05/27 00:12:57;;;;;;;3.80;2.70;;;;;;;15.33;61.39;100030.77;130524;1268;108792;-76
2022/05/27 00:16:03;;;;;;;2.70;2.30;;;;;;;15.27;61.29;100023.77;130411;1268;108946;-76
2022/05/27 00:19:09;;;;;;;3.30;2.30;;;;;;;15.25;61.35;100017.42;130310;1268;108929;-76
2022/05/27 00:22:14;;;;;;;3.50;2.50;;;;;;;15.23;61.34;100016.82;130411;1268;108608;-76
2022/05/27 00:25:20;;;;;;;5.50;2.60;;;;;;;15.22;61.51;100010.65;130402;1268;108661;-75
2022/05/27 00:28:25;;;;;;;3.90;2.70;;;;;;;15.22;61.37;100008.70;130413;1268;108964;-76
2022/05/27 00:31:32;;;;;;;3.80;2.50;;;;;;;15.21;61.40;100001.91;130405;1267;108777;-76
2022/05/27 00:34:37;;;;;;;3.60;2.40;;;;;;;15.21;61.38;99997.48;130369;1268;108612;-75
2022/05/27 00:37:43;;;;;;;4.40;2.50;;;;;;;15.22;61.28;99997.21;130530;1268;108577;-77
2022/05/27 00:40:53;;;;;;;5.00;2.60;;;;;;;15.22;61.63;99989.85;130494;1268;108796;-76
2022/05/27 00:44:00;;;;;;;3.70;2.60;;;;;;;15.23;61.61;99986.72;130422;1268;107736;-76
2022/05/27 00:47:09;;;;;;;4.60;2.70;;;;;;;15.23;61.70;99986.34;130398;1268;108736;-77
2022/05/27 00:50:19;;;;;;;4.10;2.60;;;;;;;15.22;61.84;99990.19;130421;1268;108984;-76
2022/05/27 00:53:30;;;;;;;3.90;2.50;;;;;;;15.22;61.70;99986.25;130331;1268;108748;-76
2022/05/27 00:56:40;;;;;;;4.00;2.60;;;;;;;15.22;61.74;99978.89;130494;1268;107861;-76
2022/05/27 00:59:50;;;;;;;5.10;2.40;;;;;;;15.24;61.98;99974.20;130165;1268;273896;-74
2022/05/27 01:02:59;;;;;;;3.20;2.30;;;;;;;15.28;62.01;99975.36;130395;1268;108654;-78
2022/05/27 01:06:05;;;;;;;5.30;2.40;;;;;;;15.36;62.18;99972.46;130344;1268;108692;-79
2022/05/27 01:09:10;;;;;;;4.10;2.70;;;;;;;15.42;62.08;99969.42;130384;1268;108756;-77
2022/05/27 01:12:43;;;;;;;5.20;2.70;;;;;;;15.48;62.10;99964.27;130395;1268;108724;-78
2022/05/27 01:16:01;;;;;;;4.00;2.70;;;;;;;15.52;62.18;99964.50;130367;1267;108697;-75
2022/05/27 01:23:39;;;;;;;4.20;2.90;;;;;;;15.54;62.17;99956.00;130390;1268;108723;-75
2022/05/27 01:27:04;;;;;;;3.80;2.60;;;;;;;15.52;62.18;99954.92;129885;1268;108882;-75
2022/05/27 01:30:32;;;;;;;3.90;2.80;;;;;;;15.52;62.53;99942.95;130407;1268;108811;-75
2022/05/27 01:33:44;;;;;;;5.20;2.90;;;;;;;15.49;62.40;99933.07;130378;1268;108702;-75
2022/05/27 01:36:57;;;;;;;4.60;2.90;;;;;;;15.47;62.77;99926.73;130316;1268;108771;-75
2022/05/27 01:40:10;;;;;;;4.40;3.10;;;;;;;15.44;62.64;99924.63;130412;1267;108687;-75
2022/05/27 01:43:21;;;;;;;4.90;2.70;;;;;;;15.40;62.72;99922.01;130290;1268;108603;-75
2022/05/27 01:46:32;;;;;;;4.40;2.80;;;;;;;15.38;62.61;99921.41;130314;1268;108595;-75
2022/05/27 01:49:40;;;;;;;3.30;2.90;;;;;;;15.35;62.82;99910.65;130528;1268;108775;-76
2022/05/27 01:52:53;;;;;;;5.20;3.00;;;;;;;15.30;62.85;99912.45;130353;1268;108673;-77
2022/05/27 01:56:07;;;;;;;7.30;3.00;;;;;;;15.28;62.98;99915.65;130525;1268;107834;-76
2022/05/27 01:59:20;;;;;;;4.10;2.40;;;;;;;15.25;63.09;99921.42;130281;1268;108738;-75
2022/05/27 02:02:28;;;;;;;5.40;2.70;;;;;;;15.24;63.05;99919.12;130407;1268;108887;-74
2022/05/27 02:05:40;;;;;;;5.60;2.60;;;;;;;15.26;63.06;99916.24;130410;1268;108910;-75
2022/05/27 02:08:49;;;;;;;;;;;;;;;15.33;63.03;99917.34;130453;1268;107671;-75
2022/05/27 02:11:59;;;;;;;6.00;3.10;;;;;;;15.39;63.20;99902.50;130385;1268;108843;-75
2022/05/27 02:15:11;;;;;;;4.40;3.30;;;;;;;15.41;63.30;99890.88;130362;1268;108664;-77
2022/05/27 02:18:23;;;;;;;4.30;3.20;;;;;;;15.42;63.47;99886.28;130419;1268;108827;-76
2022/05/27 02:21:33;;;;;;;6.80;3.60;;;;;;;15.40;63.41;99890.15;130367;1268;108675;-76
2022/05/27 02:24:43;;;;;;;5.90;3.60;;;;;;;15.38;63.46;99885.33;130336;1268;108674;-76
2022/05/27 02:27:52;;;;;;;5.70;4.00;;;;;;;15.37;63.68;99887.84;130352;1268;108957;-76
2022/05/27 02:31:02;;;;;;;4.60;3.40;;;;;;;15.35;63.75;99887.95;130401;1268;108937;-76
2022/05/27 02:37:41;;;;;;;6.80;3.30;;;;;;;15.27;63.80;99882.73;130430;1268;108730;-76
2022/05/27 02:40:55;;;;;;;4.20;3.40;;;;;;;15.25;63.74;99874.83;130440;1268;108579;-76
2022/05/27 02:44:23;;;;;;;4.10;3.10;;;;;;;15.22;63.96;99874.61;130316;1268;108851;-76
2022/05/27 02:47:37;;;;;;;6.80;3.00;;;;;;;15.21;63.87;99871.90;130160;1271;109272;-76
2022/05/27 02:50:53;;;;;;;3.90;3.20;;;;;;;15.23;64.05;99869.65;130215;1268;108856;-75
2022/05/27 02:54:08;;;;;;;6.30;3.50;;;;;;;15.29;63.89;99868.34;130148;1265;108679;-74
2022/05/27 02:57:20;;;;;;;6.00;3.30;;;;;;;15.37;63.89;99869.56;130225;1268;108823;-76
2022/05/27 03:00:29;;;;;;;5.60;3.60;;;;;;;15.42;64.08;99864.11;130275;1268;109208;-76
2022/05/27 03:03:35;;;;;;;9.50;4.10;;;;;;;15.45;63.98;99858.67;130254;1268;108964;-74
2022/05/27 03:06:59;;;;;;;5.70;3.80;;;;;;;15.47;63.66;99861.13;130254;1268;108720;-76
2022/05/27 03:10:22;;;;;;;7.60;3.60;;;;;;;15.45;64.07;99856.40;130307;1268;108585;-76
2022/05/27 03:13:44;;;;;;;5.40;3.50;;;;;;;15.43;63.98;99842.43;130239;1268;108766;-77
2022/05/27 03:17:02;;;;;;;5.70;3.90;;;;;;;15.42;64.07;99838.27;130268;1268;108680;-78
2022/05/27 03:20:18;;;;;;;4.80;3.40;;;;;;;15.41;63.90;99829.81;130253;1268;108706;-76
2022/05/27 03:23:49;;;;;;;4.80;3.80;;;;;;;15.38;64.22;99829.42;130299;1268;108687;-75
2022/05/27 03:27:07;;;;;;;4.20;3.80;;;;;;;15.39;64.24;99818.46;130279;1268;108953;-75
2022/05/27 03:30:17;;;;;;;5.90;3.20;;;;;;;15.39;64.36;99816.15;130264;1268;108527;-75
2022/05/27 03:33:30;;;;;;;4.70;2.80;;;;;;;15.39;64.38;99811.14;130236;1268;109097;-75
2022/05/27 03:36:43;;;;;;;4.40;3.40;;;;;;;15.41;64.19;99809.38;130315;1268;108684;-74
2022/05/27 03:39:54;;;;;;;5.30;3.20;;;;;;;15.46;64.33;99810.29;130271;1268;108837;-75
2022/05/27 03:43:01;;;;;;;6.40;3.40;;;;;;;15.52;64.25;99808.99;130223;1268;108905;-76
2022/05/27 03:46:08;;;;;;;4.70;3.60;;;;;;;15.57;64.21;99810.73;130366;1267;108809;-76
2022/05/27 03:49:14;;;;;;;4.80;3.50;;;;;;;15.59;64.31;99802.73;130436;1268;108896;-75
2022/05/27 03:52:25;;;;;;;5.80;3.60;;;;;;;15.60;64.40;99795.45;130459;1267;108631;-73
2022/05/27 03:55:30;;;;;;;6.00;3.60;;;;;;;15.61;64.49;99792.18;130530;1268;108674;-72
2022/05/27 03:58:36;;;;;;;5.30;3.50;;;;;;;15.60;64.62;99791.67;130478;1268;108124;-74
2022/05/27 04:01:43;;;;;;;5.40;4.00;;;;;;;15.59;64.61;99791.84;130459;1268;108654;-76
2022/05/27 04:04:49;;;;;;;7.60;3.90;;;;;;;15.58;64.86;99787.53;130317;1268;108786;-75
2022/05/27 04:07:54;;;;;;;5.70;3.70;;;;;;;15.57;64.98;99778.70;130446;1267;108702;-73
2022/05/27 04:11:00;;;;;;;4.50;3.00;;;;;;;15.55;64.93;99787.30;130409;1268;108702;-73
2022/05/27 04:14:06;;;;;;;4.70;3.30;;;;;;;15.54;65.03;99783.48;130397;1268;108744;-72
2022/05/27 04:17:31;;;;;;;4.90;3.10;;;;;;;15.56;65.24;99773.20;130341;1268;108845;-72
2022/05/27 04:20:36;;;;;;;9.20;3.30;;;;;;;15.60;65.31;99783.37;130404;1267;108741;-73
2022/05/27 04:23:42;;;;;;;4.40;3.20;;;;;;;15.66;65.53;99784.64;130401;1268;108760;-73
2022/05/27 04:26:47;;;;;;;5.80;3.60;;;;;;;15.72;65.55;99784.10;130323;1268;108642;-73
2022/05/27 04:29:53;;;;;;;5.00;3.70;;;;;;;15.72;65.82;99778.30;130428;1267;108852;-73
2022/05/27 04:32:59;;;;;;;5.30;3.50;;;;;;;15.73;65.83;99773.77;130341;1268;108717;-74
2022/05/27 04:36:06;;;;;;;4.40;3.50;;;;;;;15.75;65.70;99761.63;130412;1268;107534;-73
2022/05/27 04:39:13;;;;;;;3.70;3.30;;;;;;;15.78;65.95;99758.95;130455;1268;108658;-72
2022/05/27 04:42:19;;;;;;;4.60;3.50;;;;;;;15.78;65.90;99752.46;130446;1268;108860;-78
2022/05/27 04:45:25;;;;;;;4.90;3.80;;;;;;;15.80;66.12;99748.95;130439;1268;108589;-72
2022/05/27 04:48:30;;;;;;;5.80;3.10;;;;;;;15.84;66.16;99742.02;130495;1267;108802;-75
2022/05/27 04:51:35;;;;;;;6.00;3.50;;;;;;;15.90;66.21;99747.92;130410;1268;108843;-74
2022/05/27 04:54:43;;;;;;;4.20;3.50;;;;;;;15.93;66.11;99748.10;130310;1268;108686;-77
2022/05/27 04:57:53;;;;;;;6.00;3.90;;;;;;;15.93;66.10;99749.96;130358;1268;107695;-73
2022/05/27 05:01:00;;;;;;;5.90;3.90;;;;;;;15.95;66.29;99751.91;130224;1268;108742;-75
2022/05/27 05:04:06;;;;;;;4.90;3.90;;;;;;;15.94;66.15;99749.15;130227;1268;108739;-73
2022/05/27 05:07:12;;;;;;;5.00;3.90;;;;;;;15.93;66.42;99751.03;130331;1268;108865;-74
2022/05/27 05:10:22;;;;;;;5.00;3.70;;;;;;;15.93;66.59;99749.84;130307;1268;108304;-74
2022/05/27 05:13:27;;;;;;;6.20;3.50;;;;;;;15.93;66.92;99750.95;130345;1268;108869;-72
2022/05/27 05:16:33;;;;;;;4.30;3.40;;;;;;;15.88;66.89;99751.64;130384;1268;108750;-74
2022/05/27 05:19:38;;;;;;;3.80;3.10;;;;;;;15.87;67.20;99754.28;130546;1268;108664;-73
2022/05/27 05:22:44;;;;;;;5.20;3.90;;;;;;;15.92;67.24;99755.34;130372;1268;108680;-74
2022/05/27 05:25:50;;;;;;;6.60;3.90;;;;;;;15.95;67.15;99756.39;130309;1268;108880;-74
2022/05/27 05:28:55;;;;;;;6.00;3.60;;;;;;;15.94;67.35;99754.69;130270;1268;108647;-73
2022/05/27 05:32:01;;;;;;;5.10;3.50;;;;;;;15.91;67.59;99756.58;130254;1268;108921;-73
2022/05/27 05:35:08;;;;;;;5.40;3.50;;;;;;;15.87;67.89;99755.81;130347;1267;108935;-75
2022/05/27 05:38:14;;;;;;;5.00;3.40;;;;;;;15.80;68.00;99752.89;130474;1267;109113;-71
2022/05/27 05:41:28;;;;;;;4.70;3.40;;;;;;;15.75;68.78;99748.17;130318;1268;108734;-72
2022/05/27 05:44:34;;;;;;;5.20;3.30;;;;;;;15.77;68.62;99752.86;130530;1268;108686;-75
2022/05/27 05:47:39;;;;;;;4.80;3.40;;;;;;;15.79;68.70;99748.78;132219;1267;108695;-72
2022/05/27 05:50:45;;;;;;;5.20;3.50;;;;;;;15.83;68.71;99742.48;130521;1268;108728;-72
2022/05/27 05:53:51;;;;;;;4.60;3.60;;;;;;;15.93;68.72;99736.76;130350;1266;108507;-72
2022/05/27 05:57:00;;;;;;;4.40;3.50;;;;;;;16.03;68.94;99727.82;130370;1266;108745;-74
2022/05/27 06:00:07;;;;;;;5.20;3.10;;;;;;;16.18;68.98;99731.26;130349;1268;108586;-74
2022/05/27 06:03:17;;;;;;;7.20;3.00;;;;;;;16.29;68.91;99728.02;130705;1268;107585;-80
2022/05/27 06:06:23;;;;;;;4.70;3.00;;;;;;;16.41;69.13;99726.26;130424;1268;108810;-79
2022/05/27 06:09:28;;;;;;;4.80;3.10;;;;;;;16.60;68.87;99724.09;130332;1267;108853;-72
2022/05/27 06:12:36;;;;;;;4.50;3.00;;;;;;;16.75;68.79;99716.52;130376;1268;108420;-73
2022/05/27 06:15:42;;;;;;;6.00;3.30;;;;;;;16.92;68.75;99712.44;130457;1268;109005;-74
2022/05/27 06:18:49;;;;;;;6.30;3.80;;;;;;;17.08;68.87;99712.10;130566;1266;108505;-73
2022/05/27 06:21:54;;;;;;;5.20;3.20;;;;;;;17.12;68.66;99706.92;130489;1268;108017;-75
2022/05/27 06:25:00;;;;;;;6.10;3.60;;;;;;;17.16;68.69;99703.48;130405;1268;108891;-74
2022/05/27 06:34:53;;;;;;;5.70;2.70;;;;;;;17.44;68.49;99700.46;130464;1268;108745;-74
2022/05/27 06:37:59;;;;;;;4.30;2.90;;;;;;;17.57;68.59;99691.05;130518;1267;108674;-72
2022/05/27 06:41:04;;;;;;;4.60;3.00;;;;;;;17.64;68.34;99690.73;130503;1268;108869;-72
2022/05/27 06:44:10;;;;;;;8.90;3.30;;;;;;;17.62;68.15;99688.50;130525;1268;108842;-75
2022/05/27 06:47:16;;;;;;;4.20;3.00;;;;;;;17.67;68.14;99689.27;130480;1268;108912;-72
2022/05/27 06:50:21;;;;;;;5.00;3.10;;;;;;;17.75;68.18;99682.72;130504;1268;108635;-72
2022/05/27 06:53:27;;;;;;;4.50;3.00;;;;;;;17.97;68.10;99675.80;130360;1268;107057;-72
2022/05/27 06:56:35;;;;;;;3.20;2.70;;;;;;;18.21;67.78;99672.59;130381;1268;109174;-72
2022/05/27 06:59:40;;;;;;;4.80;2.60;;;;;;;18.34;67.62;99676.08;130280;1268;108854;-72
2022/05/27 07:02:46;;;;;;;4.50;2.60;;;;;;;18.35;67.42;99677.45;130368;1268;108645;-72
2022/05/27 07:05:52;;;;;;;3.20;2.70;;;;;;;18.32;67.25;99678.06;130351;1266;108676;-74
2022/05/27 07:08:59;;;;;;;3.50;2.60;;;;;;;18.21;67.18;99671.34;130371;1268;108515;-72
2022/05/27 07:12:08;;;;;;;3.50;2.80;;;;;;;18.15;67.31;99672.05;130373;1268;107588;-72
2022/05/27 07:15:13;;;;;;;4.70;2.80;;;;;;;18.08;66.95;99665.98;130411;1268;109017;-72
2022/05/27 07:18:19;;;;;;;3.30;2.50;;;;;;;17.97;66.96;99665.34;130401;1267;106810;-72
2022/05/27 07:21:26;;;;;;;4.60;2.80;;;;;;;17.90;67.12;99663.80;130445;1268;108723;-75
2022/05/27 07:24:31;;;;;;;4.80;2.80;;;;;;;17.89;67.09;99664.34;130529;1267;108548;-72
2022/05/27 07:27:36;;;;;;;4.50;2.90;;;;;;;17.88;67.10;99658.91;130482;1267;108641;-75
2022/05/27 07:30:42;;;;;;;4.20;2.80;;;;;;;17.88;67.29;99662.61;130462;1268;108775;-74
2022/05/27 07:33:48;;;;;;;4.50;2.50;;;;;;;17.91;67.24;99655.89;130453;1268;108838;-73
2022/05/27 07:36:53;;;;;;;3.40;2.70;;;;;;;17.87;67.20;99656.26;130518;1268;108517;-74
2022/05/27 07:39:58;;;;;;;3.60;2.90;;;;;;;17.86;67.48;99655.89;130494;1267;108736;-74
2022/05/27 07:43:04;;;;;;;4.70;3.10;;;;;;;17.98;67.44;99650.67;130490;1266;108639;-74
2022/05/27 07:46:10;;;;;;;6.60;3.40;;;;;;;18.00;67.23;99653.56;130470;1267;108828;-73
2022/05/27 07:49:15;;;;;;;4.80;3.40;;;;;;;17.83;67.32;99653.72;130483;1268;108967;-75
2022/05/27 07:52:21;;;;;;;3.80;3.40;;;;;;;17.63;67.49;99654.27;130540;1268;108858;-74
2022/05/27 07:55:26;;;;;;;5.80;3.90;;;;;;;17.38;68.05;99659.83;130489;1268;108791;-73
2022/05/27 07:58:32;;;;;;;6.90;3.50;;;;;;;16.97;69.31;99676.90;130454;1268;108794;-73
2022/05/27 08:01:38;;;;;;;4.60;2.40;;;;;;;16.60;70.89;99683.90;130446;1268;108813;-72
2022/05/27 08:04:44;;;;;;;4.10;2.90;;;;;;;16.32;70.25;99681.91;130467;1268;108844;-73
2022/05/27 08:07:51;;;;;;;3.40;2.50;;;;;;;16.16;70.49;99674.15;130499;1266;108499;-72
2022/05/27 08:10:56;;;;;;;3.90;2.40;;;;;;;16.05;70.79;99675.11;130490;1268;108740;-72
2022/05/27 08:14:02;;;;;;;3.80;2.50;;;;;;;15.96;70.84;99671.61;130489;1267;107690;-74
2022/05/27 08:17:07;;;;;;;4.60;2.80;;;;;;;15.94;70.91;99665.23;130459;1268;108769;-74
2022/05/27 08:20:18;;;;;;;7.70;4.20;;;;;;;15.96;70.89;99675.09;130519;1267;108550;-74
2022/05/27 08:23:24;;;;;;;10.70;7.00;;;;;;;16.06;71.17;99665.30;130494;1268;108729;-74
2022/05/27 08:26:30;;;;;;;6.40;5.30;;;;;;;16.12;71.15;99661.42;130503;1267;108797;-74
2022/05/27 08:29:35;;;;;;;6.30;4.40;;;;;;;16.16;71.25;99661.11;130455;1268;108701;-73
2022/05/27 08:32:41;;;;;;;7.10;3.70;;;;;;;16.18;71.56;99682.84;130483;1268;107852;-74
2022/05/27 08:39:12;;;;;;;4.70;3.70;;;;;;;16.12;73.04;99690.01;130363;1268;108687;-74
2022/05/27 08:42:26;;;;;;;4.40;3.60;;;;;;;16.08;73.26;99689.02;130461;1268;108886;-74
2022/05/27 08:45:38;;;;;;;3.50;3.10;;;;;;;16.05;73.50;99695.18;130472;1266;108804;-73
2022/05/27 08:48:46;;;;;;;4.00;3.60;;;;;;;15.99;73.64;99701.67;130464;1266;108924;-73
2022/05/27 08:52:00;;;;;;;5.50;3.30;;;;;;;15.89;74.32;99700.02;130515;1266;107643;-73
2022/05/27 08:59:26;;;;;;;4.80;3.60;;;;;;;15.83;74.38;99705.17;130502;1268;108630;-73
2022/05/27 09:02:09;;;;;;;5.20;3.50;;;;;;;15.80;74.40;99698.83;130449;1266;108724;-73
2022/05/27 09:05:21;;;;;;;3.70;3.30;;;;;;;15.63;74.51;99703.82;130415;1268;108677;-73
2022/05/27 09:08:30;;;;;;;4.20;2.80;;;;;;;15.52;74.57;99706.24;130594;1268;108703;-72
2022/05/27 09:11:47;;;;;;;3.60;3.00;;;;;;;15.52;74.28;99705.59;130567;1268;108707;-73
2022/05/27 09:14:59;;;;;;;2.60;2.40;;;;;;;15.58;74.00;99702.14;130353;1267;108818;-73
2022/05/27 09:18:13;;;;;;;4.30;3.10;;;;;;;15.68;73.67;99702.98;130438;1267;109092;-73
2022/05/27 09:21:30;;;;;;;3.90;2.80;;;;;;;15.82;73.64;99698.75;130485;1267;108841;-74
2022/05/27 09:24:47;;;;;;;4.60;3.50;;;;;;;16.04;73.51;99689.84;130561;1268;109046;-72
2022/05/27 09:28:04;;;;;;;3.90;3.50;;;;;;;16.18;73.61;99685.38;132200;1266;108671;-75
2022/05/27 09:31:14;;;;;;;3.80;3.40;;;;;;;16.26;73.89;99692.39;130497;1266;108710;-73
2022/05/27 09:34:23;;;;;;;3.60;3.30;;;;;;;16.32;73.85;99694.60;130475;1267;108733;-73
2022/05/27 09:37:36;;;;;;;4.20;3.50;;;;;;;16.40;73.93;99691.25;130445;1268;108952;-73
2022/05/27 09:40:48;;;;;;;4.30;3.90;;;;;;;16.43;73.72;99688.40;130455;1268;108483;-73
2022/05/27 09:43:57;;;;;;;4.90;3.50;;;;;;;16.55;73.33;99690.65;130474;1268;108867;-74
2022/05/27 09:47:05;;;;;;;4.80;3.60;;;;;;;16.71;73.18;99696.58;130479;1267;108897;-75
2022/05/27 09:50:24;;;;;;;4.10;3.70;;;;;;;16.86;73.31;99703.45;130450;1267;108702;-71
2022/05/27 09:53:34;;;;;;;3.90;3.50;;;;;;;16.97;73.12;99703.70;130512;1267;108743;-73
2022/05/27 09:56:43;;;;;;;4.10;3.40;;;;;;;16.98;72.72;99705.97;130613;1268;108796;-74
2022/05/27 09:59:53;;;;;;;3.80;3.40;;;;;;;16.76;72.79;99704.30;130461;1267;108810;-74
2022/05/27 10:02:59;;;;;;;3.50;3.20;;;;;;;16.63;73.01;99699.44;130492;1267;107629;-74
2022/05/27 10:06:08;;;;;;;3.90;3.40;;;;;;;16.55;73.15;99699.27;130448;1266;108686;-74
2022/05/27 10:09:28;;;;;;;4.40;3.60;;;;;;;16.48;73.23;99698.10;130479;1268;108842;-73
2022/05/27 10:12:35;;;;;;;4.40;3.60;;;;;;;16.23;73.46;99718.56;130520;1267;108903;-72
2022/05/27 10:15:41;;;;;;;5.50;3.60;;;;;;;15.88;74.33;99735.20;130485;1267;108902;-73
2022/05/27 10:18:46;;;;;;;3.40;2.20;;;;;;;15.59;73.72;99746.75;130483;1268;108753;-73
2022/05/27 10:21:55;;;;;;;4.90;2.30;;;;;;;15.10;72.90;99750.76;130488;1268;108660;-72
2022/05/27 10:25:04;;;;;;;3.70;2.80;;;;;;;14.71;73.48;99750.63;130478;1268;108717;-72
2022/05/27 10:28:11;;;;;;;6.40;2.50;;;;;;;14.46;73.51;99753.46;130435;1268;108952;-72
2022/05/27 10:31:18;;;;;;;3.10;2.30;;;;;;;14.39;73.51;99747.31;130445;1266;108934;-72
2022/05/27 10:34:43;;;;;;;3.50;2.00;;;;;;;14.47;73.42;99734.27;130493;1266;108699;-73
2022/05/27 10:38:03;;;;;;;4.00;1.70;;;;;;;14.65;72.19;99732.23;130444;1266;108896;-74
2022/05/27 10:41:14;;;;;;;3.40;1.50;;;;;;;14.70;72.45;99721.20;130770;1268;108570;-71
2022/05/27 10:44:31;;;;;;;2.80;1.70;;;;;;;14.82;72.20;99712.21;130962;1265;107561;-75
2022/05/27 10:48:01;;;;;;;3.00;1.60;;;;;;;15.01;72.16;99699.73;130727;1265;108813;-75
2022/05/27 10:51:14;;;;;;;3.50;1.50;;;;;;;15.22;71.72;99663.06;130671;1268;108733;-74
2022/05/27 10:54:42;;;;;;;2.70;1.10;;;;;;;15.40;71.91;99651.78;130650;1265;108782;-74
2022/05/27 11:05:10;;;;;;;;;;;;;;;16.13;71.55;99664.86;130589;1265;108731;-82
2022/05/27 11:08:26;;;;;;;2.10;1.50;;;;;;;16.39;71.36;99652.14;130563;1265;108736;-79
2022/05/27 11:11:40;;;;;;;1.40;1.20;;;;;;;16.56;70.69;99644.61;130638;1265;108745;-78
2022/05/27 11:15:11;;;;;;;1.60;1.20;;;;;;;16.59;70.59;99642.20;130581;1265;108855;-79
2022/05/27 11:18:31;;;;;;;1.80;1.20;;;;;;;16.59;70.21;99638.89;130650;1265;108702;-75
2022/05/27 11:21:50;;;;;;;1.20;1.00;;;;;;;16.47;69.79;99614.86;130599;1265;108997;-74
2022/05/27 11:25:18;;;;;;;3.20;1.20;;;;;;;16.38;69.77;99586.50;130415;1267;108862;-76
2022/05/27 11:28:53;;;;;;;2.10;1.20;;;;;;;16.33;69.01;99592.79;130337;1266;108797;-76
2022/05/27 11:32:10;;;;;;;2.10;1.20;;;;;;;16.35;69.08;99571.08;130405;1267;108874;-76
2022/05/27 11:35:26;;;;;;;2.50;1.40;;;;;;;16.39;68.74;99615.40;130378;1268;108752;-77
2022/05/27 11:38:53;;;;;;;3.00;1.30;;;;;;;16.41;68.73;99601.85;130451;1268;108873;-80
2022/05/27 11:42:13;;;;;;;2.90;1.30;;;;;;;16.37;67.98;99598.79;130489;1266;108633;-74
2022/05/27 11:45:22;;;;;;;1.40;1.20;;;;;;;16.35;67.83;99618.42;130434;1267;108621;-74
2022/05/27 11:48:41;;;;;;;1.30;1.20;;;;;;;16.33;67.69;99605.25;130490;1268;108845;-73
2022/05/27 11:52:03;;;;;;;2.10;1.10;;;;;;;16.32;67.22;99586.99;130388;1267;108773;-73
2022/05/27 11:55:28;;;;;;;1.70;1.20;;;;;;;16.24;66.50;99597.54;130398;1268;109025;-74
2022/05/27 11:58:44;;;;;;;2.60;1.20;;;;;;;16.18;66.71;99592.54;130410;1268;108685;-73
2022/05/27 12:01:54;;;;;;;1.80;1.00;;;;;;;16.20;65.52;99605.04;130314;1268;108876;-74
2022/05/27 12:05:07;;;;;;;1.50;1.00;;;;;;;16.17;65.94;99600.80;130474;1268;108850;-73
2022/05/27 12:08:24;;;;;;;1.70;1.30;;;;;;;16.07;65.27;99606.60;130463;1267;108730;-74
2022/05/27 12:11:36;;;;;;;2.70;1.30;;;;;;;15.95;65.21;99597.80;130359;1268;108699;-74
2022/05/27 12:14:45;;;;;;;2.70;1.10;;;;;;;15.87;64.65;99615.50;130329;1267;108686;-74
2022/05/27 12:17:54;;;;;;;5.10;1.30;;;;;;;15.84;64.62;99606.30;130258;1268;108853;-76
2022/05/27 12:21:00;;;;;;;2.20;1.00;;;;;;;15.88;64.96;99607.70;130651;1267;108524;-78
2022/05/27 12:24:19;;;;;;;1.80;1.00;;;;;;;15.93;64.53;99604.05;130785;1268;108776;-78
2022/05/27 12:27:25;;;;;;;1.60;1.00;;;;;;;15.87;64.32;99594.31;130805;1267;108994;-78
2022/05/27 12:30:39;;;;;;;2.50;1.10;;;;;;;15.98;64.70;99587.70;130663;1268;108832;-77
2022/05/27 12:33:45;;;;;;;2.80;1.00;;;;;;;16.13;64.66;99580.73;130608;1268;107794;-79
2022/05/27 12:36:50;;;;;;;5.30;1.30;;;;;;;16.36;64.72;99590.80;130433;1266;108667;-78
2022/05/27 12:40:32;;;;;;;2.00;1.00;;;;;;;16.60;64.07;99579.67;130449;1267;109568;-80
2022/05/27 12:43:40;;;;;;;1.60;0.80;;;;;;;16.79;64.06;99574.06;130494;1268;108742;-81
2022/05/27 12:46:52;;;;;;;1.70;1.10;;;;;;;17.02;63.76;99577.11;130636;1268;108954;-78
2022/05/27 12:50:04;;;;;;;1.70;1.10;;;;;;;17.15;63.32;99564.16;130562;1267;109002;-78
2022/05/27 12:53:20;;;;;;;2.50;1.10;;;;;;;17.27;63.11;99563.20;130550;1267;107448;-79
2022/05/27 13:03:56;;;;;;;7.10;4.80;;;;;;;17.56;62.11;99560.04;130430;1267;108765;-77
2022/05/27 13:07:10;;;;;;;8.00;5.40;;;;;;;17.53;62.48;99548.60;130612;1267;108709;-79
2022/05/27 13:10:52;;;;;;;3.90;3.60;;;;;;;17.63;62.21;99545.72;130511;1267;108872;-77
2022/05/27 13:14:14;;;;;;;2.40;1.90;;;;;;;17.57;61.62;99547.00;130512;1267;109297;-76
2022/05/27 13:17:34;;;;;;;29.60;23.90;;;;;;;17.50;60.97;99533.71;130644;1267;109548;-78
2022/05/27 13:20:54;;;;;;;58.10;35.00;;;;;;;17.59;61.00;99530.84;130604;1266;108648;-78
2022/05/27 13:24:04;;;;;;;128.60;89.00;;;;;;;17.67;61.77;99534.91;130458;1268;108820;-80
2022/05/27 13:27:28;;;;;;;18.50;14.80;;;;;;;17.61;61.21;99554.77;130682;1268;108643;-81
2022/05/27 13:31:04;;;;;;;12.20;9.70;;;;;;;17.53;61.17;99554.33;130708;1268;108731;-79
2022/05/27 13:34:17;;;;;;;5.90;5.00;;;;;;;17.52;60.75;99554.29;130387;1268;108703;-79
2022/05/27 13:37:33;;;;;;;3.50;1.80;;;;;;;17.53;59.73;99533.27;130505;1266;109158;-77
2022/05/27 13:40:40;;;;;;;2.60;2.00;;;;;;;17.61;60.61;99541.54;130433;1266;108698;-74
2022/05/27 13:43:47;;;;;;;25.60;18.40;;;;;;;17.74;60.43;99535.61;130401;1268;108722;-76
2022/05/27 13:46:56;;;;;;;67.60;48.30;;;;;;;17.86;60.66;99515.75;130445;1267;108658;-74
2022/05/27 13:50:02;;;;;;;145.30;99.70;;;;;;;18.10;60.33;99525.50;130447;1267;107660;-73
2022/05/27 13:53:25;;;;;;;20.10;14.70;;;;;;;18.32;60.21;99516.04;130474;1266;108901;-76
2022/05/27 13:56:37;;;;;;;14.70;12.20;;;;;;;18.38;60.10;99503.23;130585;1268;108659;-78
2022/05/27 13:59:47;;;;;;;41.30;26.10;;;;;;;18.37;59.01;99512.77;132430;1266;108783;-78
2022/05/27 14:02:53;;;;;;;51.10;30.80;;;;;;;18.30;58.06;99512.36;130908;1266;107637;-73
2022/05/27 14:06:04;;;;;;;46.20;33.10;;;;;;;18.22;58.81;99507.06;130391;1268;108758;-78
2022/05/27 14:09:17;;;;;;;16.10;13.60;;;;;;;18.15;58.84;99493.27;130473;1268;108766;-79
2022/05/27 14:12:22;;;;;;;87.60;77.30;;;;;;;17.96;58.76;99498.61;130360;1268;108685;-79
2022/05/27 14:15:31;;;;;;;16.90;15.10;;;;;;;17.67;58.38;99514.77;130408;1268;109289;-76
2022/05/27 14:18:37;;;;;;;17.10;15.40;;;;;;;17.39;59.46;99518.17;130406;1267;108796;-78
2022/05/27 14:25:07;;;;;;;38.40;29.50;;;;;;;17.13;59.63;99517.93;130405;1268;108704;-74
2022/05/27 14:28:29;;;;;;;34.50;31.00;;;;;;;16.98;59.92;99531.84;130359;1268;108957;-75
2022/05/27 14:31:39;;;;;;;8.90;8.10;;;;;;;16.85;60.35;99533.95;130395;1268;108802;-72
2022/05/27 14:34:47;;;;;;;7.20;6.40;;;;;;;16.73;60.69;99532.58;130586;1266;108933;-75
2022/05/27 14:38:01;;;;;;;4.20;3.20;;;;;;;16.57;60.93;99536.02;130399;1268;108911;-76
2022/05/27 14:41:11;;;;;;;4.30;2.90;;;;;;;16.31;61.57;99546.52;130370;1268;108707;-74
2022/05/27 14:44:26;;;;;;;5.00;3.40;;;;;;;16.03;62.23;99551.36;130426;1267;108807;-74
2022/05/27 14:47:34;;;;;;;5.80;3.90;;;;;;;15.63;63.70;99566.83;130394;1268;108651;-74
2022/05/27 14:50:39;;;;;;;4.50;3.20;;;;;;;15.38;63.25;99555.99;130483;1267;108763;-75
2022/05/27 14:53:45;;;;;;;15.50;13.10;;;;;;;15.32;63.63;99538.31;130463;1267;109115;-75
2022/05/27 14:56:51;;;;;;;12.00;10.80;;;;;;;15.20;63.41;99534.64;130329;1267;108950;-76
2022/05/27 15:00:00;;;;;;;13.40;11.90;;;;;;;15.12;63.50;99521.16;130509;1268;108854;-74
2022/05/27 15:03:27;;;;;;;16.50;14.80;;;;;;;15.21;63.67;99512.35;130404;1267;108889;-76
2022/05/27 15:06:39;;;;;;;15.60;14.00;;;;;;;15.32;63.99;99507.64;130500;1268;108769;-79
2022/05/27 15:09:45;;;;;;;39.60;32.50;;;;;;;15.28;64.27;99517.42;130433;1268;108939;-79
2022/05/27 15:12:51;;;;;;;67.10;54.70;;;;;;;15.27;64.30;99525.48;130590;1267;108862;-77
2022/05/27 15:16:09;;;;;;;53.10;37.20;;;;;;;15.33;64.66;99534.23;130474;1268;108898;-77